createdAt,value
2023-01-31T00:01:13.049Z,98786.52
2023-01-31T00:03:40.746Z,98795.40
2023-01-31T00:06:19.891Z,98793.67
2023-01-31T00:08:48.138Z,98795.71
2023-01-31T00:11:16.080Z,98797.23
2023-01-31T00:13:43.843Z,98807.16
2023-01-31T00:16:11.753Z,98806.81
2023-01-31T00:18:39.412Z,98810.73
2023-01-31T00:21:13.277Z,98805.92
2023-01-31T00:23:41.347Z,98811.90
2023-01-31T00:26:14.040Z,98816.69
2023-01-31T00:28:41.758Z,98819.25
2023-01-31T00:31:09.794Z,98818.38
2023-01-31T00:33:38.102Z,98820.92
2023-01-31T00:36:09.113Z,98825.88
2023-01-31T00:38:37.416Z,98834.27
2023-01-31T00:41:05.137Z,98834.96
2023-01-31T00:43:34.748Z,98830.70
2023-01-31T00:46:02.727Z,98834.98
2023-01-31T00:48:29.501Z,98837.38
2023-01-31T00:50:56.530Z,98843.55
2023-01-31T00:53:24.351Z,98845.27
2023-01-31T00:55:51.521Z,98847.70
2023-01-31T00:58:19.139Z,98861.77
2023-01-31T01:00:46.651Z,98862.45
2023-01-31T01:03:13.601Z,98860.55
2023-01-31T01:05:40.788Z,98863.45
2023-01-31T01:08:07.968Z,98873.20
2023-01-31T01:10:35.537Z,98873.37
2023-01-31T01:13:02.641Z,98868.04
2023-01-31T01:15:29.758Z,98871.13
2023-01-31T01:17:57.445Z,98870.92
2023-01-31T01:20:24.349Z,98866.64
2023-01-31T01:22:51.591Z,98871.77
2023-01-31T01:25:18.831Z,98869.55
2023-01-31T01:27:45.905Z,98872.11
2023-01-31T01:30:14.584Z,98873.84
2023-01-31T01:32:41.477Z,98875.73
2023-01-31T01:35:10.314Z,98876.10
2023-01-31T01:37:37.474Z,98876.79
2023-01-31T01:40:04.922Z,98881.94
2023-01-31T01:42:36.836Z,98886.91
2023-01-31T01:45:05.716Z,98885.38
2023-01-31T01:47:44.597Z,98883.86
2023-01-31T01:50:21.036Z,98898.27
2023-01-31T01:52:52.097Z,98897.76
2023-01-31T01:55:24.713Z,98905.98
2023-01-31T01:57:55.500Z,98904.77
2023-01-31T02:00:26.418Z,98908.70
2023-01-31T02:02:57.456Z,98907.49
2023-01-31T02:05:30.490Z,98912.63
2023-01-31T02:07:58.146Z,98914.50
2023-01-31T02:10:30.076Z,98913.48
2023-01-31T02:12:57.048Z,98923.23
2023-01-31T02:15:24.962Z,98928.54
2023-01-31T02:17:52.434Z,98931.45
2023-01-31T02:20:42.034Z,98940.52
2023-01-31T02:23:40.688Z,98951.45
2023-01-31T02:26:34.073Z,98952.64
2023-01-31T02:29:24.535Z,98954.83
2023-01-31T02:32:04.600Z,98956.34
2023-01-31T02:34:39.554Z,98965.25
2023-01-31T02:37:18.264Z,98967.48
2023-01-31T02:39:54.484Z,98966.11
2023-01-31T02:42:30.979Z,98971.73
2023-01-31T02:45:06.539Z,98970.19
2023-01-31T02:47:50.770Z,98970.01
2023-01-31T02:50:26.041Z,98981.31
2023-01-31T02:52:59.174Z,98995.19
2023-01-31T02:55:50.957Z,98990.22
2023-01-31T02:58:21.230Z,98998.94
2023-01-31T03:00:49.702Z,99006.48
2023-01-31T03:03:23.744Z,99009.04
2023-01-31T03:06:27.179Z,99014.15
2023-01-31T03:08:58.458Z,99015.46
2023-01-31T03:11:30.668Z,99023.65
2023-01-31T03:14:04.348Z,99031.67
2023-01-31T03:16:54.143Z,99036.10
2023-01-31T03:19:28.778Z,99038.79
2023-01-31T03:22:01.618Z,99047.17
2023-01-31T03:24:30.415Z,99049.22
2023-01-31T03:26:59.838Z,99053.67
2023-01-31T03:29:29.245Z,99055.73
2023-01-31T03:32:03.789Z,99065.30
2023-01-31T03:34:31.125Z,99066.16
2023-01-31T03:37:04.311Z,99072.15
2023-01-31T03:39:44.828Z,99072.66
2023-01-31T03:42:18.636Z,99076.26
2023-01-31T03:44:55.291Z,99071.48
2023-01-31T03:47:27.407Z,99074.05
2023-01-31T03:49:57.161Z,99077.16
2023-01-31T03:52:32.453Z,99075.63
2023-01-31T03:55:04.521Z,99069.61
2023-01-31T03:57:36.341Z,99070.14
2023-01-31T04:00:07.664Z,99072.55
2023-01-31T04:02:43.852Z,99078.20
2023-01-31T04:05:18.302Z,99080.41
2023-01-31T04:07:46.392Z,99083.15
2023-01-31T04:10:20.903Z,99081.96
2023-01-31T04:12:48.166Z,99083.16
2023-01-31T04:15:16.300Z,99084.70
2023-01-31T04:17:43.309Z,99090.68
2023-01-31T04:20:13.189Z,99086.91
2023-01-31T04:22:40.120Z,99088.46
2023-01-31T04:25:09.193Z,99095.17
2023-01-31T04:27:36.064Z,99101.17
2023-01-31T04:30:02.938Z,99106.17
2023-01-31T04:32:29.878Z,99104.98
2023-01-31T04:34:56.605Z,99114.94
2023-01-31T04:37:23.770Z,99119.58
2023-01-31T04:39:50.876Z,99121.46
2023-01-31T04:42:17.721Z,99128.85
2023-01-31T04:44:44.718Z,99132.63
2023-01-31T04:47:11.632Z,99128.38
2023-01-31T04:49:38.434Z,99137.98
2023-01-31T04:52:05.394Z,99136.28
2023-01-31T04:54:33.015Z,99136.98
2023-01-31T04:57:00.060Z,99144.50
2023-01-31T04:59:26.914Z,99143.45
2023-01-31T05:01:53.664Z,99146.00
2023-01-31T05:04:22.207Z,99150.95
2023-01-31T05:06:49.006Z,99155.04
2023-01-31T05:09:16.731Z,99159.64
2023-01-31T05:11:43.584Z,99168.20
2023-01-31T05:14:10.689Z,99170.44
2023-01-31T05:16:37.546Z,99173.67
2023-01-31T05:19:04.449Z,99182.91
2023-01-31T05:21:51.218Z,99185.99
2023-01-31T05:24:20.329Z,99186.48
2023-01-31T05:26:47.621Z,99194.02
2023-01-31T05:29:14.631Z,99198.64
2023-01-31T05:31:42.004Z,99198.98
2023-01-31T05:34:10.681Z,99202.92
2023-01-31T05:36:37.713Z,99210.46
2023-01-31T05:39:04.641Z,99222.62
2023-01-31T05:41:31.416Z,99222.44
2023-01-31T05:43:58.228Z,99230.83
2023-01-31T05:46:25.343Z,99232.69
2023-01-31T05:48:53.201Z,99235.44
2023-01-31T05:51:20.245Z,99240.58
2023-01-31T05:53:47.236Z,99249.31
2023-01-31T05:56:14.439Z,99255.14
2023-01-31T05:58:41.381Z,99257.70
2023-01-31T06:01:08.551Z,99259.94
2023-01-31T06:03:35.765Z,99260.80
2023-01-31T06:06:04.127Z,99260.98
2023-01-31T06:08:32.221Z,99270.95
2023-01-31T06:11:02.218Z,99278.52
2023-01-31T06:13:29.136Z,99282.83
2023-01-31T06:15:56.295Z,99287.65
2023-01-31T06:18:23.241Z,99291.94
2023-01-31T06:20:50.647Z,99295.20
2023-01-31T06:23:17.481Z,99297.95
2023-01-31T06:25:44.457Z,99297.96
2023-01-31T06:28:11.956Z,99301.22
2023-01-31T06:30:38.905Z,99301.73
2023-01-31T06:33:06.277Z,99309.43
2023-01-31T06:35:34.190Z,99313.02
2023-01-31T06:38:04.109Z,99319.67
2023-01-31T06:40:31.685Z,99321.91
2023-01-31T06:42:58.860Z,99323.61
2023-01-31T06:45:26.388Z,99331.48
2023-01-31T06:47:53.492Z,99329.06
2023-01-31T06:50:22.137Z,99331.96
2023-01-31T06:52:48.940Z,99337.09
2023-01-31T06:55:15.846Z,99334.84
2023-01-31T06:57:49.887Z,99341.01
2023-01-31T07:00:19.828Z,99343.02
2023-01-31T07:02:47.971Z,99343.34
2023-01-31T07:05:14.966Z,99347.58
2023-01-31T07:07:43.865Z,99354.59
2023-01-31T07:10:13.353Z,99352.16
2023-01-31T07:12:52.105Z,99365.35
2023-01-31T07:15:19.801Z,99375.61
2023-01-31T07:17:48.765Z,99382.14
2023-01-31T07:20:16.241Z,99388.64
2023-01-31T07:22:45.083Z,99394.99
2023-01-31T07:25:12.557Z,99397.57
2023-01-31T07:27:39.358Z,99406.34
2023-01-31T07:30:07.641Z,99405.86
2023-01-31T07:32:34.736Z,99411.49
2023-01-31T07:35:01.721Z,99408.46
2023-01-31T07:37:28.609Z,99409.98
2023-01-31T07:39:59.078Z,99411.18
2023-01-31T07:42:25.895Z,99408.61
2023-01-31T07:44:53.042Z,99422.65
2023-01-31T07:47:19.891Z,99425.04
2023-01-31T07:49:46.781Z,99427.09
2023-01-31T07:52:13.570Z,99428.95
2023-01-31T07:54:40.343Z,99428.74
2023-01-31T07:57:07.222Z,99435.01
2023-01-31T07:59:34.181Z,99445.08
2023-01-31T08:02:18.866Z,99450.19
2023-01-31T08:04:46.917Z,99450.12
2023-01-31T08:07:15.368Z,99457.95
2023-01-31T08:09:43.726Z,99456.34
2023-01-31T08:12:10.753Z,99458.48
2023-01-31T08:14:37.682Z,99468.40
2023-01-31T08:17:04.615Z,99469.23
2023-01-31T08:19:31.936Z,99469.41
2023-01-31T08:21:58.990Z,99473.85
2023-01-31T08:24:25.833Z,99483.06
2023-01-31T08:26:52.883Z,99481.10
2023-01-31T08:29:20.184Z,99483.63
2023-01-31T08:31:47.042Z,99486.89
2023-01-31T08:34:14.123Z,99488.24
2023-01-31T08:36:41.090Z,99488.19
2023-01-31T08:39:08.622Z,99495.69
2023-01-31T08:41:37.088Z,99494.79
2023-01-31T08:44:05.011Z,99501.79
2023-01-31T08:46:34.232Z,99499.99
2023-01-31T08:49:01.780Z,99501.95
2023-01-31T08:51:29.074Z,99497.52
2023-01-31T08:53:56.392Z,99503.27
2023-01-31T08:56:26.098Z,99503.42
2023-01-31T08:58:58.291Z,99498.91
2023-01-31T09:01:25.561Z,99498.80
2023-01-31T09:03:56.811Z,99501.50
2023-01-31T09:06:27.142Z,99504.75
2023-01-31T09:08:54.467Z,99505.55
2023-01-31T09:11:22.130Z,99503.04
2023-01-31T09:13:51.615Z,99502.81
2023-01-31T09:16:18.970Z,99506.69
2023-01-31T09:18:46.229Z,99510.92
2023-01-31T09:21:16.559Z,99517.03
2023-01-31T09:23:43.708Z,99511.95
2023-01-31T09:26:12.006Z,99520.70
2023-01-31T09:28:40.089Z,99520.13
2023-01-31T09:31:09.572Z,99530.75
2023-01-31T09:33:37.551Z,99535.14
2023-01-31T09:36:06.252Z,99535.88
2023-01-31T09:38:33.232Z,99541.27
2023-01-31T09:41:02.434Z,99541.12
2023-01-31T09:43:43.020Z,99543.22
2023-01-31T09:46:16.456Z,99539.48
2023-01-31T09:48:47.081Z,99542.95
2023-01-31T09:51:15.743Z,99545.69
2023-01-31T09:53:43.938Z,99543.27
2023-01-31T09:56:24.384Z,99553.36
2023-01-31T09:58:58.582Z,99553.34
2023-01-31T10:01:31.026Z,99554.65
2023-01-31T10:04:18.967Z,99546.14
2023-01-31T10:06:51.071Z,99546.81
2023-01-31T10:09:27.347Z,99547.32
2023-01-31T10:12:00.620Z,99543.47
2023-01-31T10:14:36.636Z,99541.31
2023-01-31T10:17:11.200Z,99540.90
2023-01-31T10:19:45.439Z,99532.60
2023-01-31T10:22:18.251Z,99533.66
2023-01-31T10:24:50.832Z,99539.91
2023-01-31T10:27:22.358Z,99537.92
2023-01-31T10:29:54.686Z,99549.34
2023-01-31T10:32:30.253Z,99543.68
2023-01-31T10:35:02.936Z,99545.58
2023-01-31T10:37:36.364Z,99548.11
2023-01-31T10:40:07.190Z,99546.11
2023-01-31T10:42:36.713Z,99550.50
2023-01-31T10:45:07.852Z,99545.10
2023-01-31T10:47:37.562Z,99540.41
2023-01-31T10:50:14.178Z,99541.78
2023-01-31T10:52:54.367Z,99544.15
2023-01-31T10:55:39.815Z,99546.49
2023-01-31T10:58:10.333Z,99540.94
2023-01-31T11:00:37.340Z,99537.58
2023-01-31T11:03:05.098Z,99532.83
2023-01-31T11:05:32.627Z,99526.90
2023-01-31T11:08:01.306Z,99524.53
2023-01-31T11:10:30.172Z,99526.45
2023-01-31T11:13:01.930Z,99532.92
2023-01-31T11:15:35.996Z,99535.42
2023-01-31T11:18:04.128Z,99529.75
2023-01-31T11:20:33.781Z,99537.37
2023-01-31T11:23:02.472Z,99541.30
2023-01-31T11:25:33.230Z,99542.83
2023-01-31T11:28:05.009Z,99536.17
2023-01-31T11:30:35.085Z,99550.55
2023-01-31T11:33:02.405Z,99560.71
2023-01-31T11:35:31.531Z,99551.48
2023-01-31T11:38:00.314Z,99559.86
2023-01-31T11:40:33.762Z,99558.25
2023-01-31T11:43:02.932Z,99552.64
2023-01-31T11:45:31.843Z,99550.16
2023-01-31T11:48:01.117Z,99551.47
2023-01-31T11:50:34.490Z,99554.45
2023-01-31T11:53:03.610Z,99548.45
2023-01-31T11:55:37.141Z,99551.70
2023-01-31T11:58:18.181Z,99543.93
2023-01-31T12:00:54.143Z,99544.58
2023-01-31T12:03:21.435Z,99537.96
2023-01-31T12:05:53.073Z,99528.81
2023-01-31T12:08:35.927Z,99529.98
2023-01-31T12:11:07.224Z,99522.54
2023-01-31T12:13:46.430Z,99528.53
2023-01-31T12:16:16.065Z,99524.20
2023-01-31T12:18:59.862Z,99526.06
2023-01-31T12:21:41.337Z,99527.05
2023-01-31T12:24:15.823Z,99520.94
2023-01-31T12:26:49.551Z,99518.42
2023-01-31T12:29:44.578Z,99517.09
2023-01-31T12:32:37.567Z,99516.52
2023-01-31T12:35:21.065Z,99510.27
2023-01-31T12:38:01.602Z,99508.95
2023-01-31T12:40:47.850Z,99503.89
2023-01-31T12:43:34.854Z,99502.02
2023-01-31T12:46:14.021Z,99501.94
2023-01-31T12:49:03.688Z,99494.44
2023-01-31T12:51:41.501Z,99496.32
2023-01-31T12:54:20.565Z,99492.89
2023-01-31T12:57:02.902Z,99501.70
2023-01-31T12:59:40.377Z,99493.65
2023-01-31T13:02:24.096Z,99492.10
2023-01-31T13:04:57.127Z,99492.55
2023-01-31T13:07:30.050Z,99502.98
2023-01-31T13:10:02.725Z,99505.77
2023-01-31T13:12:32.696Z,99502.92
2023-01-31T13:15:06.773Z,99505.63
2023-01-31T13:17:36.884Z,99502.33
2023-01-31T13:20:11.222Z,99502.27
2023-01-31T13:22:46.603Z,99497.30
2023-01-31T13:25:23.701Z,99499.68
2023-01-31T13:27:59.613Z,99486.29
2023-01-31T13:30:34.860Z,99489.56
2023-01-31T13:33:04.658Z,99484.56
2023-01-31T13:35:38.462Z,99490.58
2023-01-31T13:38:11.721Z,99485.69
2023-01-31T13:40:46.490Z,99491.27
2023-01-31T13:43:17.585Z,99494.41
2023-01-31T13:45:52.664Z,99496.20
2023-01-31T13:48:27.823Z,99490.38
2023-01-31T13:50:59.669Z,99493.34
2023-01-31T13:53:32.113Z,99492.20
2023-01-31T13:56:01.592Z,99496.63
2023-01-31T13:58:34.392Z,99503.59
2023-01-31T14:01:08.305Z,99504.17
2023-01-31T14:04:12.479Z,99505.27
2023-01-31T14:07:19.161Z,99503.77
2023-01-31T14:10:09.023Z,99499.38
2023-01-31T14:12:37.862Z,99496.48
2023-01-31T14:15:26.404Z,99498.79
2023-01-31T14:18:03.179Z,99490.61
2023-01-31T14:20:32.875Z,99498.20
2023-01-31T14:23:31.126Z,99492.24
2023-01-31T14:25:58.445Z,99490.54
2023-01-31T14:28:26.746Z,99483.02
2023-01-31T14:30:54.906Z,99489.06
2023-01-31T14:33:27.906Z,99487.73
2023-01-31T14:36:28.969Z,99487.93
2023-01-31T14:39:27.609Z,99489.67
2023-01-31T14:42:28.744Z,99492.11
2023-01-31T14:45:21.206Z,99488.89
2023-01-31T14:48:08.586Z,99483.11
2023-01-31T14:51:10.108Z,99483.48
2023-01-31T14:54:00.947Z,99480.96
2023-01-31T14:56:44.817Z,99481.70
2023-01-31T14:59:28.222Z,99483.80
2023-01-31T15:01:56.036Z,99475.09
2023-01-31T15:04:26.704Z,99476.00
2023-01-31T15:06:56.444Z,99472.94
2023-01-31T15:09:40.782Z,99475.52
2023-01-31T15:12:45.175Z,99477.60
2023-01-31T15:15:25.759Z,99476.25
2023-01-31T15:17:54.854Z,99476.45
2023-01-31T15:20:25.470Z,99477.86
2023-01-31T15:22:54.842Z,99474.98
2023-01-31T15:25:31.385Z,99478.46
2023-01-31T15:28:00.787Z,99477.98
2023-01-31T15:30:32.166Z,99474.39
2023-01-31T15:33:03.413Z,99471.66
2023-01-31T15:35:34.097Z,99474.92
2023-01-31T15:38:06.565Z,99476.65
2023-01-31T15:40:34.390Z,99472.55
2023-01-31T15:43:19.101Z,99471.51
2023-01-31T15:45:47.916Z,99468.95
2023-01-31T15:48:17.695Z,99466.21
2023-01-31T15:50:53.890Z,99464.34
2023-01-31T15:53:22.969Z,99458.18
2023-01-31T15:55:51.785Z,99456.64
2023-01-31T15:58:21.345Z,99461.10
2023-01-31T16:00:52.807Z,99461.95
2023-01-31T16:03:23.230Z,99461.59
2023-01-31T16:05:54.383Z,99459.70
2023-01-31T16:08:27.594Z,99467.75
2023-01-31T16:10:55.225Z,99471.03
2023-01-31T16:13:23.864Z,99475.17
2023-01-31T16:15:51.788Z,99477.27
2023-01-31T16:18:19.756Z,99480.36
2023-01-31T16:20:49.681Z,99479.19
2023-01-31T16:23:32.542Z,99472.37
2023-01-31T16:26:05.220Z,99468.64
2023-01-31T16:28:38.114Z,99463.73
2023-01-31T16:31:11.509Z,99461.88
2023-01-31T16:33:39.182Z,99462.73
2023-01-31T16:36:15.781Z,99464.83
2023-01-31T16:38:55.638Z,99466.40
2023-01-31T16:41:44.380Z,99464.36
2023-01-31T16:44:16.798Z,99465.06
2023-01-31T16:46:46.145Z,99459.41
2023-01-31T16:49:21.165Z,99455.46
2023-01-31T16:51:49.748Z,99449.97
2023-01-31T16:54:23.313Z,99444.81
2023-01-31T16:57:06.675Z,99442.06
2023-01-31T16:59:49.042Z,99439.98
2023-01-31T17:02:30.183Z,99437.08
2023-01-31T17:05:00.146Z,99431.92
2023-01-31T17:07:30.241Z,99425.08
2023-01-31T17:09:59.602Z,99417.38
2023-01-31T17:12:30.086Z,99416.17
2023-01-31T17:15:00.882Z,99413.45
2023-01-31T17:17:30.888Z,99410.35
2023-01-31T17:19:58.009Z,99408.64
2023-01-31T17:22:25.046Z,99407.45
2023-01-31T17:24:52.440Z,99400.94
2023-01-31T17:27:21.425Z,99399.24
2023-01-31T17:29:49.326Z,99399.58
2023-01-31T17:32:18.199Z,99391.70
2023-01-31T17:34:46.238Z,99391.73
2023-01-31T17:37:16.107Z,99384.36
2023-01-31T17:39:43.463Z,99380.94
2023-01-31T17:42:18.576Z,99375.63
2023-01-31T17:44:45.727Z,99377.37
2023-01-31T17:47:12.693Z,99372.76
2023-01-31T17:49:39.649Z,99369.85
2023-01-31T17:52:06.905Z,99362.83
2023-01-31T17:54:33.863Z,99353.23
2023-01-31T17:57:00.735Z,99350.33
2023-01-31T17:59:27.846Z,99345.00
2023-01-31T18:01:54.812Z,99344.33
2023-01-31T18:04:21.732Z,99337.48
2023-01-31T18:06:48.873Z,99337.14
2023-01-31T18:09:18.689Z,99333.91
2023-01-31T18:11:46.858Z,99327.21
2023-01-31T18:14:14.205Z,99321.38
2023-01-31T18:16:41.302Z,99316.79
2023-01-31T18:19:08.349Z,99315.75
2023-01-31T18:21:38.908Z,99314.03
2023-01-31T18:24:09.150Z,99309.23
2023-01-31T18:26:36.267Z,99307.16
2023-01-31T18:29:03.250Z,99306.80
2023-01-31T18:31:30.655Z,99295.33
2023-01-31T18:33:57.545Z,99289.48
2023-01-31T18:36:24.894Z,99281.05
2023-01-31T18:38:52.961Z,99280.50
2023-01-31T18:41:22.009Z,99272.61
2023-01-31T18:43:49.900Z,99277.39
2023-01-31T18:46:17.352Z,99270.52
2023-01-31T18:48:44.319Z,99264.16
2023-01-31T18:51:14.274Z,99261.56
2023-01-31T18:53:43.009Z,99260.70
2023-01-31T18:56:13.876Z,99259.48
2023-01-31T18:58:44.884Z,99253.18
2023-01-31T19:01:14.504Z,99252.99
2023-01-31T19:03:42.601Z,99250.11
2023-01-31T19:06:12.268Z,99247.89
2023-01-31T19:08:40.015Z,99242.78
2023-01-31T19:11:12.762Z,99234.92
2023-01-31T19:13:40.582Z,99232.57
2023-01-31T19:16:10.470Z,99227.80
2023-01-31T19:18:38.182Z,99233.11
2023-01-31T19:21:14.071Z,99225.77
2023-01-31T19:23:41.069Z,99221.31
2023-01-31T19:26:07.966Z,99220.80
2023-01-31T19:28:36.235Z,99210.91
2023-01-31T19:31:07.186Z,99205.13
2023-01-31T19:33:34.483Z,99195.90
2023-01-31T19:36:01.310Z,99191.13
2023-01-31T19:38:28.213Z,99184.11
2023-01-31T19:41:04.657Z,99178.27
2023-01-31T19:43:31.583Z,99173.81
2023-01-31T19:45:58.443Z,99167.13
2023-01-31T19:48:25.424Z,99158.55
2023-01-31T19:50:52.869Z,99147.58
2023-01-31T19:53:19.704Z,99143.96
2023-01-31T19:55:49.440Z,99139.14
2023-01-31T19:58:16.475Z,99134.52
2023-01-31T20:00:43.383Z,99128.66
2023-01-31T20:03:10.557Z,99123.86
2023-01-31T20:05:38.827Z,99112.41
2023-01-31T20:08:05.820Z,99110.17
2023-01-31T20:10:32.876Z,99100.46
2023-01-31T20:13:02.555Z,99100.92
2023-01-31T20:15:29.527Z,99095.92
2023-01-31T20:17:57.101Z,99088.89
2023-01-31T20:20:24.625Z,99085.27
2023-01-31T20:22:51.479Z,99083.55
2023-01-31T20:25:18.787Z,99071.56
2023-01-31T20:27:46.076Z,99070.67
2023-01-31T20:30:17.505Z,99073.55
2023-01-31T20:32:45.801Z,99067.00
2023-01-31T20:35:13.096Z,99058.58
2023-01-31T20:37:40.529Z,99057.02
2023-01-31T20:40:08.995Z,99050.70
2023-01-31T20:42:36.092Z,99048.10
2023-01-31T20:45:03.108Z,99050.31
2023-01-31T20:47:30.235Z,99045.83
2023-01-31T20:49:57.050Z,99041.70
2023-01-31T20:52:24.413Z,99038.95
2023-01-31T20:54:51.653Z,99036.55
2023-01-31T20:57:19.986Z,99030.39
2023-01-31T20:59:47.047Z,99021.30
2023-01-31T21:02:14.491Z,99015.36
2023-01-31T21:04:41.573Z,99012.94
2023-01-31T21:07:08.572Z,99002.01
2023-01-31T21:09:37.484Z,99006.80
2023-01-31T21:12:04.453Z,98996.39
2023-01-31T21:14:31.430Z,98992.94
2023-01-31T21:16:58.824Z,98982.33
2023-01-31T21:19:25.633Z,98983.03
2023-01-31T21:21:53.071Z,98977.39
2023-01-31T21:24:20.233Z,98971.09
2023-01-31T21:26:47.382Z,98967.67
2023-01-31T21:29:14.180Z,98962.88
2023-01-31T21:31:41.834Z,98956.73
2023-01-31T21:34:10.532Z,98948.48
2023-01-31T21:36:37.633Z,98939.23
2023-01-31T21:39:05.012Z,98945.40
2023-01-31T21:41:51.327Z,98937.33
2023-01-31T21:44:18.958Z,98937.83
2023-01-31T21:46:46.710Z,98933.00
2023-01-31T21:49:13.547Z,98927.69
2023-01-31T21:51:42.441Z,98919.98
2023-01-31T21:54:09.305Z,98921.90
2023-01-31T21:56:36.247Z,98924.84
2023-01-31T21:59:03.454Z,98915.83
2023-01-31T22:01:32.156Z,98916.95
2023-01-31T22:04:00.566Z,98910.88
2023-01-31T22:06:31.648Z,98904.66
2023-01-31T22:09:00.664Z,98894.66
2023-01-31T22:11:32.920Z,98894.89
2023-01-31T22:14:01.286Z,98893.61
2023-01-31T22:16:28.546Z,98882.91
2023-01-31T22:18:55.744Z,98879.56
2023-01-31T22:21:24.910Z,98872.59
2023-01-31T22:23:53.091Z,98864.58
2023-01-31T22:26:23.984Z,98867.36
2023-01-31T22:28:51.968Z,98861.90
2023-01-31T22:31:20.079Z,98864.14
2023-01-31T22:33:47.552Z,98864.48
2023-01-31T22:36:16.152Z,98857.95
2023-01-31T22:38:43.537Z,98852.98
2023-01-31T22:41:13.297Z,98852.96
2023-01-31T22:43:41.852Z,98860.98
2023-01-31T22:46:11.741Z,98847.45
2023-01-31T22:48:38.849Z,98836.80
2023-01-31T22:51:08.149Z,98838.33
2023-01-31T22:53:36.856Z,98831.10
2023-01-31T22:56:05.235Z,98822.86
2023-01-31T22:58:32.188Z,98820.92
2023-01-31T23:00:59.161Z,98820.54
2023-01-31T23:03:26.909Z,98817.76
2023-01-31T23:05:53.684Z,98812.74
2023-01-31T23:08:20.808Z,98812.35
2023-01-31T23:10:47.953Z,98809.23
2023-01-31T23:13:15.199Z,98799.27
2023-01-31T23:15:42.697Z,98790.83
2023-01-31T23:18:09.817Z,98793.17
2023-01-31T23:20:36.699Z,98789.98
2023-01-31T23:23:03.564Z,98790.59
2023-01-31T23:25:31.398Z,98790.85
2023-01-31T23:27:59.032Z,98784.77
2023-01-31T23:30:26.358Z,98785.89
2023-01-31T23:32:54.220Z,98778.27
2023-01-31T23:35:21.615Z,98777.20
2023-01-31T23:37:49.170Z,98772.55
2023-01-31T23:40:16.874Z,98771.98
2023-01-31T23:42:43.718Z,98772.59
2023-01-31T23:45:13.251Z,98765.68
2023-01-31T23:47:43.457Z,98762.70
2023-01-31T23:50:12.458Z,98764.70
2023-01-31T23:52:39.784Z,98754.55
2023-01-31T23:55:08.148Z,98750.77
2023-01-31T23:57:35.505Z,98750.70
